Kaktovik, AK

3:28 PM AKDT on August 24, 2016 (GMT -0800)
Barter Island LRRS | | Change Station

Elev 7 ft 70.13 °N, 143.58 °W | Updated 7 minutes ago

Overcast
Overcast
43 °F
Feels Like 35 °F
N
16
Wind Variable Wind from East

Today
High -- | Low -- °F
--% Chance of Precip.
Yesterday
High -- | Low -- °F
Precip. -- in
Pressure 30.13 in
Visibility 1.0 miles
Clouds Overcast 200 ft
Windchill 35 °F
Dew Point 43 °F
Humidity 100%
Rainfall 0.00 in
Snow Depth Not available.
5:16 AM 9:52 PM
Waning Gibbous, 52% visible
SPECI PABA 242321Z 09014KT 1SM BR OVC002 06/06 A3013 RMK AO2
Pressure 30.13 in
Visibility 1.0 miles
Clouds Overcast 200 ft
Windchill 35 °F
Dew Point 43 °F
Humidity 100%
Rainfall 0.00 in
Snow Depth Not available.
5:16 AM 9:52 PM
Waning Gibbous, 52% visible
SPECI PABA 242321Z 09014KT 1SM BR OVC002 06/06 A3013 RMK AO2

10-Day Weather Forecast

Almanac

Astronomy

Aug. 24, 2016 Rise Set
Actual Time
Civil Twilight
Nautical Twilight
Astronomical Twilight
Moon
Length of Visible Light
Length of Day
Tomorrow will be .
, % of the Moon is Illuminated

Today's Extremes

State Highs State Lows

Community

WunderPhotos

Upload Photos

1,934,731 photos uploaded!

WunderBlog® & News

Nearby

Air Quality

  Air Quality AQ Index Pollutant
Not available.

Snow Depth

Station Depth Elevation

Earthquake Activity

City Distance Mag. Time & Date
Minimum magnitude displayed is 2.5.

Coastal Water Temperatures

Place Temperature

Stations

Nearby Weather Stations

Station Location Temp. Windchill Dew Point Humidity Wind Precip. Elev Updated Type
                   

Watches & Warnings

There are currently no watches in effect.